createdAt,value
2023-10-17T00:02:12.018Z,20.63
2023-10-17T00:04:43.568Z,20.47
2023-10-17T00:07:14.272Z,26.73
2023-10-17T00:09:43.795Z,25.77
2023-10-17T00:12:27.508Z,22.63
2023-10-17T00:15:02.327Z,23.17
2023-10-17T00:17:31.276Z,17.83
2023-10-17T00:20:00.211Z,22.20
2023-10-17T00:22:30.773Z,28.57
2023-10-17T00:25:11.509Z,18.73
2023-10-17T00:27:40.654Z,22.47
2023-10-17T00:30:18.651Z,18.90
2023-10-17T00:32:49.054Z,26.40
2023-10-17T00:35:20.757Z,27.77
2023-10-17T00:37:55.345Z,25.83
2023-10-17T00:40:38.276Z,29.80
2023-10-17T00:43:07.969Z,32.57
2023-10-17T00:45:36.740Z,34.53
2023-10-17T00:48:10.007Z,32.47
2023-10-17T00:50:40.898Z,28.53
2023-10-17T00:53:12.781Z,28.60
2023-10-17T00:55:41.777Z,32.13
2023-10-17T00:58:11.179Z,33.13
2023-10-17T01:00:42.577Z,29.67
2023-10-17T01:03:12.460Z,27.60
2023-10-17T01:05:47.887Z,35.13
2023-10-17T01:08:18.957Z,29.37
2023-10-17T01:10:48.889Z,33.57
2023-10-17T01:13:17.748Z,31.00
2023-10-17T01:15:48.896Z,29.87
2023-10-17T01:18:18.045Z,29.07
2023-10-17T01:20:46.946Z,26.50
2023-10-17T01:23:16.641Z,27.57
2023-10-17T01:25:48.436Z,28.93
2023-10-17T01:28:19.849Z,27.27
2023-10-17T01:30:48.598Z,25.17
2023-10-17T01:33:18.177Z,25.73
2023-10-17T01:35:47.241Z,29.50
2023-10-17T01:38:15.692Z,26.23
2023-10-17T01:40:45.572Z,25.50
2023-10-17T01:43:13.979Z,22.97
2023-10-17T01:45:43.782Z,25.00
2023-10-17T01:48:14.937Z,22.53
2023-10-17T01:50:45.766Z,20.37
2023-10-17T01:53:15.027Z,21.00
2023-10-17T01:55:50.344Z,15.40
2023-10-17T01:58:23.667Z,17.90
2023-10-17T02:00:56.342Z,20.87
2023-10-17T02:03:24.784Z,20.53
2023-10-17T02:05:53.647Z,24.27
2023-10-17T02:08:23.450Z,19.27
2023-10-17T02:10:51.913Z,21.27
2023-10-17T02:13:22.605Z,20.03
2023-10-17T02:15:52.370Z,19.73
2023-10-17T02:18:20.988Z,18.07
2023-10-17T02:20:52.838Z,17.97
2023-10-17T02:23:27.708Z,20.17
2023-10-17T02:25:56.778Z,23.40
2023-10-17T02:28:26.685Z,24.73
2023-10-17T02:30:59.909Z,21.70
2023-10-17T02:33:30.284Z,24.97
2023-10-17T02:36:09.855Z,29.73
2023-10-17T02:38:38.312Z,30.40
2023-10-17T02:41:10.275Z,27.00
2023-10-17T02:43:41.765Z,30.27
2023-10-17T02:46:10.281Z,33.00
2023-10-17T02:48:41.739Z,34.17
2023-10-17T02:51:24.167Z,34.30
2023-10-17T02:53:53.510Z,33.50
2023-10-17T02:56:22.354Z,30.83
2023-10-17T02:59:00.892Z,32.50
2023-10-17T03:01:29.582Z,32.20
2023-10-17T03:03:58.035Z,31.23
2023-10-17T03:06:26.732Z,28.47
2023-10-17T03:09:15.213Z,26.07
2023-10-17T03:11:52.146Z,25.40
2023-10-17T03:14:24.946Z,21.90
2023-10-17T03:16:55.628Z,23.53
2023-10-17T03:19:27.105Z,30.80
2023-10-17T03:21:56.437Z,28.10
2023-10-17T03:24:30.807Z,24.23
2023-10-17T03:27:08.942Z,25.53
2023-10-17T03:29:43.321Z,26.87
2023-10-17T03:32:13.509Z,23.97
2023-10-17T03:34:46.966Z,21.60
2023-10-17T03:37:29.697Z,22.77
2023-10-17T03:39:59.312Z,23.73
2023-10-17T03:42:44.663Z,23.20
2023-10-17T03:45:18.064Z,19.57
2023-10-17T03:47:50.570Z,24.33
2023-10-17T03:53:17.271Z,20.83
2023-10-17T03:55:50.196Z,17.93
2023-10-17T03:58:29.927Z,20.40
2023-10-17T04:00:59.864Z,18.93
2023-10-17T04:03:32.055Z,16.63
2023-10-17T04:06:19.352Z,18.33
2023-10-17T04:08:58.190Z,18.47
2023-10-17T04:11:37.917Z,20.27
2023-10-17T04:14:10.134Z,20.00
2023-10-17T04:16:40.735Z,20.03
2023-10-17T04:19:18.490Z,19.30
2023-10-17T04:21:57.659Z,21.27
2023-10-17T04:24:35.912Z,20.60
2023-10-17T04:27:23.798Z,19.30
2023-10-17T04:29:58.062Z,20.60
2023-10-17T04:32:31.002Z,23.13
2023-10-17T04:35:01.164Z,23.30
2023-10-17T04:37:36.117Z,20.47
2023-10-17T04:40:23.921Z,25.50
2023-10-17T04:43:19.873Z,23.03
2023-10-17T04:45:56.361Z,23.67
2023-10-17T04:48:33.753Z,19.13
2023-10-17T04:51:13.488Z,28.57
2023-10-17T04:53:49.162Z,24.33
2023-10-17T04:56:20.110Z,26.97
2023-10-17T04:58:55.237Z,26.13
2023-10-17T05:01:37.446Z,27.67
2023-10-17T05:04:20.514Z,22.63
2023-10-17T05:07:03.628Z,24.10
2023-10-17T05:09:49.505Z,21.93
2023-10-17T05:12:36.716Z,21.77
2023-10-17T05:15:28.403Z,23.30
2023-10-17T05:18:14.349Z,23.40
2023-10-17T05:21:00.320Z,27.57
2023-10-17T05:23:46.150Z,23.30
2023-10-17T05:26:32.141Z,23.43
2023-10-17T05:29:19.450Z,23.33
2023-10-17T05:32:05.182Z,24.13
2023-10-17T05:34:51.288Z,20.13
2023-10-17T05:37:38.227Z,27.17
2023-10-17T05:40:26.234Z,22.37
2023-10-17T05:43:12.017Z,20.43
2023-10-17T05:45:59.031Z,20.73
2023-10-17T05:48:44.773Z,23.23
2023-10-17T05:51:30.549Z,21.93
2023-10-17T05:57:04.727Z,20.63
2023-10-17T05:59:50.663Z,18.90
2023-10-17T06:02:38.001Z,20.47
2023-10-17T06:05:26.701Z,20.50
2023-10-17T06:08:12.187Z,19.13
2023-10-17T06:10:57.676Z,18.43
2023-10-17T06:13:43.298Z,20.40
2023-10-17T06:16:29.378Z,22.77
2023-10-17T06:18:59.689Z,17.87
2023-10-17T06:21:38.014Z,17.30
2023-10-17T06:24:29.630Z,19.70
2023-10-17T06:27:13.643Z,17.87
2023-10-17T06:29:59.184Z,25.13
2023-10-17T06:32:41.359Z,18.63
2023-10-17T06:35:22.359Z,23.20
2023-10-17T06:37:51.297Z,25.00
2023-10-17T06:40:19.833Z,23.73
2023-10-17T06:42:50.983Z,21.03
2023-10-17T06:45:21.614Z,31.87
2023-10-17T06:47:49.630Z,23.30
2023-10-17T06:50:39.856Z,20.50
2023-10-17T06:53:12.675Z,18.70
2023-10-17T06:55:44.634Z,17.43
2023-10-17T06:58:15.914Z,20.60
2023-10-17T07:00:51.560Z,20.30
2023-10-17T07:03:28.165Z,21.80
2023-10-17T07:06:13.354Z,23.03
2023-10-17T07:08:47.340Z,23.43
2023-10-17T07:11:27.774Z,27.83
2023-10-17T07:14:25.158Z,25.37
2023-10-17T07:17:02.008Z,23.37
2023-10-17T07:19:48.134Z,28.33
2023-10-17T07:22:18.123Z,25.23
2023-10-17T07:24:50.343Z,22.07
2023-10-17T07:27:28.722Z,28.17
2023-10-17T07:30:11.992Z,24.13
2023-10-17T07:32:57.304Z,24.53
2023-10-17T07:35:26.696Z,29.33
2023-10-17T07:37:57.491Z,27.83
2023-10-17T07:40:43.836Z,27.40
2023-10-17T07:43:12.418Z,20.80
2023-10-17T07:45:43.999Z,21.00
2023-10-17T07:48:23.406Z,21.27
2023-10-17T07:50:52.818Z,23.70
2023-10-17T07:53:23.968Z,21.37
2023-10-17T07:55:55.645Z,22.00
2023-10-17T07:58:43.737Z,23.47
2023-10-17T08:01:16.972Z,23.43
2023-10-17T08:03:57.251Z,23.67
2023-10-17T08:06:31.246Z,23.33
2023-10-17T08:09:04.363Z,21.90
2023-10-17T08:11:33.494Z,21.47
2023-10-17T08:14:10.815Z,27.70
2023-10-17T08:16:44.284Z,28.07
2023-10-17T08:19:16.424Z,25.77
2023-10-17T08:22:01.807Z,21.87
2023-10-17T08:24:35.165Z,22.40
2023-10-17T08:27:19.477Z,19.63
2023-10-17T08:29:50.278Z,22.67
2023-10-17T08:32:36.851Z,27.57
2023-10-17T08:35:11.234Z,24.30
2023-10-17T08:37:45.712Z,22.53
2023-10-17T08:40:33.630Z,29.30
2023-10-17T08:43:04.841Z,27.67
2023-10-17T08:45:38.794Z,26.10
2023-10-17T08:48:10.898Z,23.90
2023-10-17T08:50:44.560Z,29.40
2023-10-17T08:53:21.650Z,21.07
2023-10-17T08:55:52.334Z,21.87
2023-10-17T08:58:26.637Z,28.70
2023-10-17T09:00:58.928Z,29.03
2023-10-17T09:03:37.371Z,25.00
2023-10-17T09:06:25.396Z,28.73
2023-10-17T09:08:57.371Z,27.00
2023-10-17T09:11:35.513Z,22.73
2023-10-17T09:14:19.424Z,21.13
2023-10-17T09:16:52.182Z,22.50
2023-10-17T09:19:22.792Z,25.30
2023-10-17T09:21:51.617Z,15.80
2023-10-17T09:24:33.949Z,17.70
2023-10-17T09:27:07.514Z,19.03
2023-10-17T09:29:51.815Z,18.97
2023-10-17T09:32:37.597Z,17.53
2023-10-17T09:35:12.684Z,17.77
2023-10-17T09:37:43.362Z,16.23
2023-10-17T09:40:23.502Z,17.30
2023-10-17T09:42:55.049Z,14.47
2023-10-17T09:45:33.944Z,15.10
2023-10-17T09:48:06.521Z,13.40
2023-10-17T09:50:37.543Z,12.70
2023-10-17T09:53:19.403Z,14.27
2023-10-17T09:55:50.765Z,12.07
2023-10-17T09:58:25.708Z,12.27
2023-10-17T10:00:57.523Z,14.13
2023-10-17T10:03:29.784Z,12.60
2023-10-17T10:06:23.431Z,10.53
2023-10-17T10:08:56.921Z,13.20
2023-10-17T10:12:00.030Z,12.50
2023-10-17T10:14:45.268Z,10.20
2023-10-17T10:17:16.483Z,12.93
2023-10-17T10:20:00.058Z,9.37
2023-10-17T10:22:54.887Z,10.03
2023-10-17T10:25:24.199Z,7.70
2023-10-17T10:28:34.917Z,7.93
2023-10-17T10:31:40.155Z,9.10
2023-10-17T10:34:09.733Z,7.87
2023-10-17T10:36:39.443Z,9.40
2023-10-17T10:39:19.852Z,9.57
2023-10-17T10:42:02.007Z,7.33
2023-10-17T10:44:30.845Z,7.53
2023-10-17T10:47:01.130Z,9.13
2023-10-17T10:49:30.619Z,8.97
2023-10-17T10:52:00.501Z,5.20
2023-10-17T10:54:55.745Z,6.80
2023-10-17T10:57:29.543Z,6.17
2023-10-17T10:59:59.519Z,9.13
2023-10-17T11:02:31.853Z,7.03
2023-10-17T11:05:00.994Z,7.47
2023-10-17T11:07:29.643Z,7.17
2023-10-17T11:10:05.193Z,6.27
2023-10-17T11:12:33.640Z,11.33
2023-10-17T11:15:13.231Z,7.73
2023-10-17T11:17:43.952Z,9.00
2023-10-17T11:20:20.620Z,6.20
2023-10-17T11:22:49.514Z,5.30
2023-10-17T11:25:23.170Z,7.90
2023-10-17T11:27:57.595Z,6.80
2023-10-17T11:30:35.919Z,4.80
2023-10-17T11:33:07.437Z,3.63
2023-10-17T11:35:36.714Z,4.63
2023-10-17T11:38:09.019Z,4.60
2023-10-17T11:40:46.048Z,5.37
2023-10-17T11:43:22.288Z,3.10
2023-10-17T11:45:50.781Z,4.37
2023-10-17T11:48:30.800Z,3.30
2023-10-17T11:51:17.445Z,3.27
2023-10-17T11:54:14.724Z,4.07
2023-10-17T11:56:46.810Z,6.20
2023-10-17T11:59:19.516Z,3.23
2023-10-17T12:01:48.581Z,4.53
2023-10-17T12:04:19.347Z,2.50
2023-10-17T12:06:49.029Z,3.10
2023-10-17T12:09:24.299Z,2.17
2023-10-17T12:11:54.893Z,5.83
2023-10-17T12:14:24.763Z,2.70
2023-10-17T12:16:56.450Z,5.40
2023-10-17T12:19:28.670Z,4.43
2023-10-17T12:21:57.625Z,5.53
2023-10-17T12:24:30.696Z,3.47
2023-10-17T12:26:58.670Z,3.50
2023-10-17T12:29:27.547Z,4.27
2023-10-17T12:31:56.071Z,4.40
2023-10-17T12:34:26.378Z,5.43
2023-10-17T12:36:54.894Z,3.40
2023-10-17T12:39:26.272Z,3.30
2023-10-17T12:41:57.539Z,6.13
2023-10-17T12:44:26.622Z,4.97
2023-10-17T12:46:55.122Z,4.87
2023-10-17T12:49:25.753Z,4.30
2023-10-17T12:51:55.804Z,4.63
2023-10-17T12:54:28.084Z,5.30
2023-10-17T12:56:57.009Z,5.60
2023-10-17T12:59:25.458Z,6.40
2023-10-17T13:01:53.974Z,3.90
2023-10-17T13:04:22.667Z,8.60
2023-10-17T13:06:54.985Z,5.47
2023-10-17T13:09:25.348Z,4.97
2023-10-17T13:11:53.875Z,4.17
2023-10-17T13:14:22.316Z,5.93
2023-10-17T13:16:50.890Z,6.63
2023-10-17T13:19:20.513Z,3.70
2023-10-17T13:21:49.082Z,5.97
2023-10-17T13:24:17.787Z,3.77
2023-10-17T13:26:47.871Z,2.83
2023-10-17T13:29:16.318Z,3.83
2023-10-17T13:31:45.536Z,2.60
2023-10-17T13:34:14.021Z,2.77
2023-10-17T13:36:42.646Z,3.33
2023-10-17T13:39:11.178Z,5.17
2023-10-17T13:41:40.030Z,4.43
2023-10-17T13:44:12.920Z,3.10
2023-10-17T13:46:41.417Z,4.77
2023-10-17T13:49:10.852Z,5.73
2023-10-17T13:51:47.900Z,3.97
2023-10-17T13:54:18.127Z,3.03
2023-10-17T13:56:46.553Z,2.87
2023-10-17T13:59:16.425Z,2.33
2023-10-17T14:01:46.710Z,4.53
2023-10-17T14:04:15.830Z,2.40
2023-10-17T14:06:44.671Z,3.53
2023-10-17T14:09:24.624Z,3.57
2023-10-17T14:11:53.397Z,7.33
2023-10-17T14:14:26.393Z,2.77
2023-10-17T14:16:57.257Z,2.57
2023-10-17T14:19:38.546Z,4.03
2023-10-17T14:22:10.213Z,4.00
2023-10-17T14:25:02.247Z,3.53
2023-10-17T14:27:33.508Z,4.83
2023-10-17T14:30:03.475Z,5.67
2023-10-17T14:32:32.161Z,4.20
2023-10-17T14:35:00.966Z,3.40
2023-10-17T14:37:29.702Z,3.43
2023-10-17T14:39:58.481Z,4.27
2023-10-17T14:42:29.074Z,5.83
2023-10-17T14:44:57.689Z,4.03
2023-10-17T14:47:27.903Z,5.10
2023-10-17T14:49:56.367Z,4.73
2023-10-17T14:52:25.599Z,4.63
2023-10-17T14:54:54.238Z,6.93
2023-10-17T14:57:23.150Z,5.47
2023-10-17T14:59:51.676Z,6.03
2023-10-17T15:02:20.708Z,5.50
2023-10-17T15:04:53.891Z,5.93
2023-10-17T15:07:22.337Z,6.80
2023-10-17T15:09:51.895Z,5.40
2023-10-17T15:12:21.810Z,9.53
2023-10-17T15:14:50.335Z,7.63
2023-10-17T15:17:19.676Z,13.30
2023-10-17T15:19:51.536Z,13.57
2023-10-17T15:22:20.012Z,11.80
2023-10-17T15:24:54.234Z,15.70
2023-10-17T15:27:23.589Z,16.53
2023-10-17T15:29:55.246Z,18.87
2023-10-17T15:32:25.378Z,18.00
2023-10-17T15:34:55.471Z,18.87
2023-10-17T15:37:24.496Z,20.77
2023-10-17T15:39:54.786Z,25.70
2023-10-17T15:42:23.342Z,29.17
2023-10-17T15:44:51.791Z,41.63
2023-10-17T15:47:20.172Z,69.37
2023-10-17T15:49:49.942Z,75.57
2023-10-17T15:52:20.415Z,74.03
2023-10-17T15:54:51.799Z,81.67
2023-10-17T15:57:20.519Z,73.13
2023-10-17T15:59:50.913Z,61.60
2023-10-17T16:02:19.389Z,39.43
2023-10-17T16:04:49.541Z,37.60
2023-10-17T16:07:19.586Z,31.53
2023-10-17T16:09:51.298Z,32.63
2023-10-17T16:12:20.089Z,40.23
2023-10-17T16:14:48.858Z,37.80
2023-10-17T16:17:17.391Z,33.90
2023-10-17T16:19:45.789Z,33.40
2023-10-17T16:22:14.340Z,36.57
2023-10-17T16:24:44.220Z,40.10
2023-10-17T16:27:12.680Z,35.90
2023-10-17T16:29:41.835Z,39.67
2023-10-17T16:32:11.194Z,36.30
2023-10-17T16:34:39.756Z,35.87
2023-10-17T16:37:08.729Z,37.23
2023-10-17T16:39:37.224Z,38.93
2023-10-17T16:42:07.358Z,38.50
2023-10-17T16:44:35.883Z,38.57
2023-10-17T16:47:06.564Z,41.67
2023-10-17T16:49:36.900Z,36.73
2023-10-17T16:52:05.634Z,41.73
2023-10-17T16:54:34.897Z,42.80
2023-10-17T16:57:03.789Z,49.80
2023-10-17T16:59:34.006Z,43.90
2023-10-17T17:02:02.598Z,42.97
2023-10-17T17:04:33.039Z,46.83
2023-10-17T17:07:01.832Z,57.27
2023-10-17T17:09:30.680Z,51.90
2023-10-17T17:11:59.312Z,70.20
2023-10-17T17:14:28.119Z,172.77
2023-10-17T17:16:58.725Z,271.03
2023-10-17T17:19:29.935Z,249.53
2023-10-17T17:21:58.894Z,186.30
2023-10-17T17:24:27.945Z,118.83
2023-10-17T17:26:57.671Z,74.10
2023-10-17T17:29:28.283Z,63.33
2023-10-17T17:31:59.088Z,59.53
2023-10-17T17:34:27.861Z,65.23
2023-10-17T17:36:56.570Z,77.07
2023-10-17T17:39:25.814Z,87.47
2023-10-17T17:41:54.394Z,73.30
2023-10-17T17:44:22.808Z,64.97
2023-10-17T17:46:52.848Z,63.33
2023-10-17T17:49:23.313Z,66.07
2023-10-17T17:51:52.408Z,58.77
2023-10-17T17:54:20.884Z,66.73
2023-10-17T17:56:49.572Z,56.07
2023-10-17T17:59:18.122Z,66.30
2023-10-17T18:01:46.563Z,66.33
2023-10-17T18:04:29.501Z,67.97
2023-10-17T18:07:01.132Z,62.47
2023-10-17T18:09:30.676Z,75.30
2023-10-17T18:12:00.980Z,64.77
2023-10-17T18:14:29.517Z,59.10
2023-10-17T18:16:58.185Z,65.30
2023-10-17T18:19:27.214Z,64.43
2023-10-17T18:21:56.054Z,66.97
2023-10-17T18:24:26.123Z,62.97
2023-10-17T18:26:56.712Z,68.70
2023-10-17T18:29:25.773Z,69.63
2023-10-17T18:31:54.257Z,107.43
2023-10-17T18:34:25.253Z,255.63
2023-10-17T18:36:53.806Z,149.23
2023-10-17T18:39:22.270Z,78.63
2023-10-17T18:41:52.827Z,68.23
2023-10-17T18:44:21.351Z,65.60
2023-10-17T18:46:49.874Z,69.83
2023-10-17T18:49:18.376Z,66.97
2023-10-17T18:51:46.934Z,57.90
2023-10-17T18:54:16.000Z,56.33
2023-10-17T18:56:44.429Z,58.23
2023-10-17T18:59:14.399Z,62.40
2023-10-17T19:01:43.210Z,60.23
2023-10-17T19:04:11.832Z,49.70
2023-10-17T19:06:40.668Z,56.63
2023-10-17T19:09:12.348Z,47.10
2023-10-17T19:11:41.010Z,50.67
2023-10-17T19:14:10.886Z,49.17
2023-10-17T19:16:42.126Z,54.53
2023-10-17T19:19:11.219Z,56.90
2023-10-17T19:21:40.465Z,61.23
2023-10-17T19:24:09.859Z,54.47
2023-10-17T19:26:38.451Z,58.97
2023-10-17T19:29:06.958Z,58.00
2023-10-17T19:31:35.676Z,56.23
2023-10-17T19:34:07.031Z,48.57
2023-10-17T19:36:35.632Z,47.27
2023-10-17T19:39:08.418Z,49.17
2023-10-17T19:41:36.856Z,49.90
2023-10-17T19:44:07.146Z,45.53
2023-10-17T19:46:40.088Z,50.57
2023-10-17T19:49:10.756Z,56.77
2023-10-17T19:51:40.125Z,51.47
2023-10-17T19:54:08.814Z,68.07
2023-10-17T19:56:42.343Z,264.80
2023-10-17T19:59:11.699Z,159.57
2023-10-17T20:01:41.235Z,188.77
2023-10-17T20:04:12.067Z,77.07
2023-10-17T20:06:44.644Z,57.63
2023-10-17T20:09:17.026Z,54.87
2023-10-17T20:11:45.419Z,53.90
2023-10-17T20:14:14.226Z,56.87
2023-10-17T20:16:42.914Z,50.20
2023-10-17T20:19:13.983Z,60.03
2023-10-17T20:21:42.657Z,56.13
2023-10-17T20:24:13.355Z,52.10
2023-10-17T20:26:41.966Z,49.17
2023-10-17T20:29:13.649Z,48.60
2023-10-17T20:31:42.175Z,55.57
2023-10-17T20:34:11.446Z,50.47
2023-10-17T20:36:41.409Z,51.73
2023-10-17T20:39:09.991Z,53.47
2023-10-17T20:41:41.030Z,45.13
2023-10-17T20:44:09.473Z,44.47
2023-10-17T20:46:38.924Z,41.83
2023-10-17T20:49:07.871Z,39.93
2023-10-17T20:51:37.785Z,41.20
2023-10-17T20:54:08.364Z,51.73
2023-10-17T20:56:42.263Z,41.13
2023-10-17T20:59:11.552Z,39.17
2023-10-17T21:01:40.210Z,37.53
2023-10-17T21:04:09.389Z,36.93
2023-10-17T21:06:38.154Z,38.47
2023-10-17T21:09:21.448Z,38.77
2023-10-17T21:11:49.832Z,42.20
2023-10-17T21:14:18.307Z,39.53
2023-10-17T21:16:49.341Z,39.87
2023-10-17T21:19:18.146Z,41.50
2023-10-17T21:21:47.371Z,38.57
2023-10-17T21:24:17.642Z,39.27
2023-10-17T21:26:46.192Z,37.67
2023-10-17T21:29:15.376Z,36.37
2023-10-17T21:31:46.065Z,56.47
2023-10-17T21:34:16.200Z,50.60
2023-10-17T21:36:44.801Z,64.60
2023-10-17T21:39:17.211Z,85.13
2023-10-17T21:41:47.800Z,80.90
2023-10-17T21:44:16.389Z,76.97
2023-10-17T21:46:45.682Z,86.17
2023-10-17T21:49:14.365Z,86.97
2023-10-17T21:51:42.886Z,73.43
2023-10-17T21:54:11.309Z,76.70
2023-10-17T21:56:39.770Z,80.10
2023-10-17T21:59:09.614Z,79.10
2023-10-17T22:01:38.191Z,80.70
2023-10-17T22:04:10.071Z,76.10
2023-10-17T22:06:39.701Z,71.53
2023-10-17T22:09:13.025Z,75.80
2023-10-17T22:11:41.548Z,71.87
2023-10-17T22:14:11.525Z,71.50
2023-10-17T22:16:40.756Z,71.43
2023-10-17T22:19:10.908Z,70.93
2023-10-17T22:21:39.478Z,69.13
2023-10-17T22:24:09.075Z,69.70
2023-10-17T22:26:40.782Z,69.20
2023-10-17T22:29:11.127Z,70.17
2023-10-17T22:31:40.390Z,63.87
2023-10-17T22:34:10.126Z,63.50
2023-10-17T22:36:42.342Z,69.40
2023-10-17T22:39:12.621Z,72.30
2023-10-17T22:41:49.966Z,71.27
2023-10-17T22:44:19.806Z,104.83
2023-10-17T22:46:48.299Z,116.43
2023-10-17T22:49:16.809Z,84.83
2023-10-17T22:51:45.347Z,69.33
2023-10-17T22:54:14.124Z,65.13
2023-10-17T22:56:42.808Z,76.17
2023-10-17T22:59:12.003Z,66.97
2023-10-17T23:01:42.173Z,73.57
2023-10-17T23:04:12.947Z,65.17
2023-10-17T23:06:43.954Z,68.10
2023-10-17T23:09:13.213Z,72.43
2023-10-17T23:11:44.825Z,85.13
2023-10-17T23:14:16.161Z,76.43
2023-10-17T23:16:48.153Z,79.07
2023-10-17T23:19:18.235Z,86.47
2023-10-17T23:21:49.210Z,88.27
2023-10-17T23:24:21.156Z,74.33
2023-10-17T23:26:49.694Z,63.03
2023-10-17T23:29:18.485Z,61.63
2023-10-17T23:31:53.732Z,67.67
2023-10-17T23:34:22.507Z,65.23
2023-10-17T23:36:51.185Z,60.40
2023-10-17T23:39:23.580Z,61.00
2023-10-17T23:41:54.060Z,67.63
2023-10-17T23:44:22.496Z,63.40
2023-10-17T23:46:54.916Z,57.70
2023-10-17T23:49:26.033Z,59.13
2023-10-17T23:51:55.195Z,57.23
2023-10-17T23:54:23.936Z,52.37
2023-10-17T23:56:53.701Z,55.03
2023-10-17T23:59:24.922Z,52.43
